Time;durP1;ratioP1;P1;durP2;ratioP2;P2;SDS_P1;SDS_P2;PMS_P1;PMS_P2;Temp;Humidity;BMP_temperature;BMP_pressure;BME280_temperature;BME280_humidity;BME280_pressure;Samples;Min_cycle;Max_cycle;Signal;HPM_P1;HPM_P2
2021/10/05 00:02:29;;;;;;;4.73;1.00;;;;;11.60;100599.00;;;;10442393;28;20202;-77
2021/10/05 00:07:31;;;;;;;3.83;1.47;;;;;11.60;100589.00;;;;10458539;28;20194;-78
2021/10/05 00:12:33;;;;;;;2.13;0.83;;;;;11.60;100583.00;;;;10441629;28;20201;-77
2021/10/05 00:17:35;;;;;;;3.57;1.17;;;;;11.60;100596.00;;;;10474650;28;20225;-77
2021/10/05 00:22:37;;;;;;;2.90;0.80;;;;;11.60;100582.00;;;;10457755;28;20190;-77
2021/10/05 00:27:39;;;;;;;3.00;1.20;;;;;11.60;100572.00;;;;10425307;28;20191;-77
2021/10/05 00:32:41;;;;;;;8.00;1.27;;;;;11.60;100566.00;;;;10457510;28;20265;-78
2021/10/05 00:37:44;;;;;;;3.23;0.80;;;;;11.60;100559.00;;;;10440118;28;20210;-78
2021/10/05 00:42:46;;;;;;;1.97;0.80;;;;;11.70;100552.00;;;;10427373;28;20218;-78
2021/10/05 00:47:47;;;;;;;5.00;1.00;;;;;11.60;100532.00;;;;10447821;28;20187;-78
2021/10/05 00:52:51;;;;;;;6.40;1.40;;;;;11.60;100528.00;;;;10431544;28;20233;-78
2021/10/05 00:57:54;;;;;;;3.20;0.90;;;;;11.60;100539.00;;;;10474984;28;20216;-78
2021/10/05 01:02:57;;;;;;;2.40;0.93;;;;;11.50;100530.00;;;;10423472;28;20199;-78
2021/10/05 01:07:59;;;;;;;3.70;0.80;;;;;11.60;100523.00;;;;10461290;28;20600;-78
2021/10/05 01:13:02;;;;;;;4.10;1.20;;;;;11.60;100524.00;;;;10431014;28;20174;-77
2021/10/05 01:18:04;;;;;;;6.27;1.00;;;;;11.70;100506.00;;;;10430398;28;20206;-78
2021/10/05 01:23:06;;;;;;;1.17;0.93;;;;;11.80;100503.00;;;;10463444;28;20240;-78
2021/10/05 01:28:08;;;;;;;3.73;1.00;;;;;11.70;100495.00;;;;10429485;28;20190;-78
2021/10/05 01:33:10;;;;;;;3.17;0.87;;;;;11.70;100484.00;;;;10429783;28;20657;-78
2021/10/05 01:38:12;;;;;;;2.80;1.10;;;;;11.60;100478.00;;;;10429877;28;20665;-78
2021/10/05 01:43:14;;;;;;;5.27;1.23;;;;;11.50;100464.00;;;;10430095;28;20685;-78
2021/10/05 01:48:16;;;;;;;2.07;0.90;;;;;11.50;100458.00;;;;10428945;28;20604;-78
2021/10/05 01:53:18;;;;;;;3.50;1.27;;;;;11.50;100451.00;;;;10427265;28;20244;-78
2021/10/05 01:58:20;;;;;;;2.07;0.90;;;;;11.50;100443.00;;;;10443464;28;20240;-78
2021/10/05 02:03:22;;;;;;;3.50;1.10;;;;;11.50;100433.00;;;;10487239;28;20190;-78
2021/10/05 02:08:24;;;;;;;1.03;0.87;;;;;11.50;100413.00;;;;10435187;28;20186;-78
2021/10/05 02:13:26;;;;;;;1.90;0.97;;;;;11.40;100418.00;;;;10419928;28;20230;-77
2021/10/05 02:18:28;;;;;;;5.60;1.13;;;;;11.40;100420.00;;;;10459768;28;20240;-78
2021/10/05 02:28:58;;;;;;;2.97;1.30;;;;;11.30;100397.00;;;;10423966;28;20193;-78
2021/10/05 02:34:00;;;;;;;4.20;1.40;;;;;11.30;100397.00;;;;10452687;28;20227;-78
2021/10/05 02:39:03;;;;;;;2.67;1.00;;;;;11.30;100372.00;;;;10421304;28;20203;-77
2021/10/05 02:44:05;;;;;;;6.67;1.00;;;;;11.30;100366.00;;;;10467851;28;20206;-77
2021/10/05 02:49:07;;;;;;;2.87;0.97;;;;;11.30;100349.00;;;;10435035;28;20629;-77
2021/10/05 02:54:09;;;;;;;2.37;0.90;;;;;11.30;100338.00;;;;10441914;28;20194;-77
2021/10/05 02:59:13;;;;;;;2.27;1.07;;;;;11.20;100331.00;;;;10427311;28;20226;-77
2021/10/05 03:04:15;;;;;;;4.07;1.17;;;;;11.20;100315.00;;;;10442557;28;20697;-78
2021/10/05 03:09:17;;;;;;;4.80;1.10;;;;;11.20;100312.00;;;;10401463;28;20197;-77
2021/10/05 03:14:19;;;;;;;2.10;0.90;;;;;11.10;100288.00;;;;10441489;28;20221;-78
2021/10/05 03:19:21;;;;;;;4.40;1.10;;;;;11.10;100288.00;;;;10441516;28;20245;-78
2021/10/05 03:24:25;;;;;;;5.93;1.13;;;;;11.00;100280.00;;;;10442562;28;20221;-77
2021/10/05 03:29:27;;;;;;;6.47;1.27;;;;;11.10;100264.00;;;;10430765;28;20186;-77
2021/10/05 03:34:28;;;;;;;4.30;1.80;;;;;11.10;100264.00;;;;10475679;28;20225;-77
2021/10/05 03:39:31;;;;;;;2.80;1.20;;;;;11.10;100254.00;;;;10440953;28;20224;-78
2021/10/05 03:44:33;;;;;;;5.57;1.13;;;;;11.10;100252.00;;;;10425001;28;20293;-78
2021/10/05 03:49:35;;;;;;;3.23;1.40;;;;;11.10;100243.00;;;;10457894;28;20280;-77
2021/10/05 03:54:37;;;;;;;5.33;1.30;;;;;11.20;100234.00;;;;10457569;28;20198;-78
2021/10/05 03:59:39;;;;;;;3.33;1.20;;;;;11.20;100233.00;;;;10467339;28;20225;-78
2021/10/05 04:04:41;;;;;;;4.97;1.20;;;;;11.10;100231.00;;;;10442766;28;20313;-78
2021/10/05 04:09:43;;;;;;;3.00;0.93;;;;;11.10;100219.00;;;;10407943;28;20187;-77
2021/10/05 04:14:45;;;;;;;7.27;1.40;;;;;11.20;100211.00;;;;10424089;28;20198;-77
2021/10/05 04:19:47;;;;;;;3.87;1.00;;;;;11.00;100194.00;;;;10430592;28;20206;-77
2021/10/05 04:24:48;;;;;;;2.90;1.40;;;;;11.00;100187.00;;;;10475220;28;20560;-77
2021/10/05 04:29:50;;;;;;;2.63;1.00;;;;;11.00;100178.00;;;;10444960;28;20232;-77
2021/10/05 04:34:52;;;;;;;4.17;1.23;;;;;11.00;100185.00;;;;10448702;28;20494;-77
2021/10/05 04:39:54;;;;;;;0.70;0.70;;;;;11.00;100167.00;;;;10464888;28;20284;-77
2021/10/05 04:44:57;;;;;;;3.70;1.27;;;;;11.00;100162.00;;;;10464853;28;20202;-77
2021/10/05 04:49:59;;;;;;;4.63;1.10;;;;;11.00;100149.00;;;;10430770;28;20198;-77
2021/10/05 04:55:03;;;;;;;7.63;1.60;;;;;11.00;100154.00;;;;10431067;28;20202;-77
2021/10/05 05:00:07;;;;;;;6.17;1.50;;;;;11.00;100153.00;;;;10447178;28;20213;-77
2021/10/05 05:05:10;;;;;;;4.70;1.30;;;;;11.10;100146.00;;;;10446898;28;20551;-77
2021/10/05 05:10:12;;;;;;;3.17;1.30;;;;;11.20;100140.00;;;;10414364;28;20190;-77
2021/10/05 05:15:15;;;;;;;2.93;1.13;;;;;11.20;100144.00;;;;10413856;28;20198;-77
2021/10/05 05:20:17;;;;;;;4.13;1.20;;;;;11.20;100126.00;;;;10479918;28;20202;-77
2021/10/05 05:25:18;;;;;;;3.33;1.63;;;;;11.20;100113.00;;;;10429640;28;20297;-77
2021/10/05 05:30:20;;;;;;;5.60;1.30;;;;;11.20;100120.00;;;;10411725;28;20207;-77
2021/10/05 05:35:22;;;;;;;3.83;1.20;;;;;11.20;100107.00;;;;10453950;28;20270;-77
2021/10/05 05:40:25;;;;;;;7.33;1.20;;;;;11.20;100103.00;;;;10420432;28;20684;-77
2021/10/05 05:45:28;;;;;;;6.40;1.33;;;;;11.20;100102.00;;;;10446457;28;20202;-77
2021/10/05 05:50:30;;;;;;;2.53;1.07;;;;;11.20;100100.00;;;;10404576;28;20290;-77
2021/10/05 05:55:32;;;;;;;6.93;1.20;;;;;11.20;100094.00;;;;10425074;28;20190;-77
2021/10/05 06:00:34;;;;;;;3.93;1.13;;;;;11.20;100083.00;;;;10406321;28;20206;-77
2021/10/05 06:05:36;;;;;;;4.77;1.37;;;;;11.20;100082.00;;;;10428505;28;20190;-78
2021/10/05 06:10:39;;;;;;;4.37;1.33;;;;;11.20;100070.00;;;;10444385;28;20190;-78
2021/10/05 06:15:41;;;;;;;3.30;1.07;;;;;11.30;100075.00;;;;10419530;28;20689;-78
2021/10/05 06:20:43;;;;;;;5.37;1.40;;;;;11.40;100060.00;;;;10426783;28;20224;-78
2021/10/05 06:25:44;;;;;;;2.57;1.57;;;;;11.40;100048.00;;;;10427354;28;20201;-78
2021/10/05 06:30:46;;;;;;;2.73;1.50;;;;;11.60;100049.00;;;;10427754;28;20281;-79
2021/10/05 06:35:48;;;;;;;3.27;1.20;;;;;11.70;100048.00;;;;10399408;28;20252;-78
2021/10/05 06:40:51;;;;;;;4.40;1.87;;;;;11.90;100046.00;;;;10405183;28;20226;-77
2021/10/05 06:45:53;;;;;;;4.37;1.90;;;;;12.00;100032.00;;;;10396250;28;20199;-78
2021/10/05 06:50:55;;;;;;;2.47;1.50;;;;;12.20;100026.00;;;;10448828;28;20268;-78
2021/10/05 06:55:57;;;;;;;6.40;1.33;;;;;12.40;100030.00;;;;10448422;28;20547;-77
2021/10/05 07:00:59;;;;;;;3.90;1.40;;;;;12.60;100018.00;;;;10483798;28;20222;-77
2021/10/05 07:06:02;;;;;;;6.27;1.60;;;;;13.00;100009.00;;;;10448198;28;20239;-77
2021/10/05 07:11:04;;;;;;;4.47;1.40;;;;;13.30;100003.00;;;;10430657;28;20220;-77
2021/10/05 07:16:06;;;;;;;4.20;1.13;;;;;13.40;100013.00;;;;10452483;28;20186;-77
2021/10/05 07:21:08;;;;;;;3.47;1.17;;;;;13.50;99997.00;;;;10457165;28;20190;-77
2021/10/05 07:26:10;;;;;;;4.60;1.50;;;;;13.70;100007.00;;;;10438639;28;20245;-77
2021/10/05 07:31:13;;;;;;;6.93;1.47;;;;;13.90;100001.00;;;;10452654;28;20186;-77
2021/10/05 07:36:18;;;;;;;5.20;1.40;;;;;14.10;99992.00;;;;10476878;28;20197;-77
2021/10/05 07:41:20;;;;;;;5.37;1.23;;;;;14.40;99976.00;;;;10431363;28;20705;-77
2021/10/05 07:46:32;;;;;;;2.87;1.47;;;;;14.80;99956.00;;;;10423864;28;20198;-77
2021/10/05 07:51:34;;;;;;;4.00;1.20;;;;;15.20;99926.00;;;;10437114;28;20210;-78
2021/10/05 07:56:36;;;;;;;4.00;1.17;;;;;15.80;99943.00;;;;10453539;28;20213;-77
2021/10/05 08:01:38;;;;;;;4.03;1.63;;;;;16.40;99923.00;;;;10454585;28;20193;-78
2021/10/05 08:06:40;;;;;;;3.78;1.98;;;;;17.00;99912.00;;;;10422964;28;20193;-78
2021/10/05 08:11:42;;;;;;;3.83;0.98;;;;;17.40;99914.00;;;;10448182;28;20190;-78
2021/10/05 08:16:45;;;;;;;4.53;1.42;;;;;16.90;99897.00;;;;10431000;28;20308;-78
2021/10/05 08:21:47;;;;;;;3.00;1.10;;;;;16.40;99903.00;;;;10465519;28;20190;-80
2021/10/05 08:26:49;;;;;;;2.90;1.13;;;;;16.10;99873.00;;;;10425353;28;20229;-78
2021/10/05 08:31:51;;;;;;;4.45;1.00;;;;;16.00;99865.00;;;;10429424;28;20205;-78
2021/10/05 08:36:53;;;;;;;2.97;1.27;;;;;16.00;99851.00;;;;10484376;28;20210;-78
2021/10/05 08:41:55;;;;;;;2.88;1.20;;;;;16.00;99837.00;;;;10446871;28;20217;-79
2021/10/05 08:46:57;;;;;;;5.50;1.37;;;;;16.10;99846.00;;;;10438965;28;20216;-79
2021/10/05 08:51:59;;;;;;;8.67;1.10;;;;;16.40;99833.00;;;;10376494;28;20199;-79
2021/10/05 08:57:00;;;;;;;3.53;1.27;;;;;16.70;99817.00;;;;10406734;28;20219;-79
2021/10/05 09:02:18;;;;;;;2.80;0.95;;;;;17.30;99822.00;;;;10432179;28;20198;-79
2021/10/05 09:07:22;;;;;;;4.05;1.52;;;;;17.60;99810.00;;;;10372598;28;20191;-79
2021/10/05 09:12:26;;;;;;;3.80;1.08;;;;;17.80;99820.00;;;;10421093;28;20531;-79
2021/10/05 09:17:29;;;;;;;4.28;0.90;;;;;18.30;99796.00;;;;10408553;28;20215;-80
2021/10/05 09:22:31;;;;;;;3.33;1.10;;;;;19.60;99806.00;;;;10418726;28;20199;-80
2021/10/05 09:27:33;;;;;;;4.90;1.20;;;;;19.20;99811.00;;;;10408068;28;20219;-79
2021/10/05 09:32:35;;;;;;;6.80;0.98;;;;;19.10;99833.00;;;;10410890;28;20313;-79
2021/10/05 09:37:37;;;;;;;1.30;0.90;;;;;18.70;99827.00;;;;10380030;28;20268;-77
2021/10/05 09:42:47;;;;;;;3.63;1.05;;;;;18.20;99838.00;;;;10419154;28;20685;-79
2021/10/05 09:47:54;;;;;;;4.30;1.00;;;;;17.70;99824.00;;;;10387746;28;20605;-79
2021/10/05 09:52:59;;;;;;;4.03;1.08;;;;;17.70;99844.00;;;;10437088;28;20226;-79
2021/10/05 09:58:01;;;;;;;4.47;1.20;;;;;17.60;99847.00;;;;10437210;28;20264;-79
2021/10/05 10:03:07;;;;;;;5.05;1.10;;;;;17.30;99844.00;;;;10444571;28;20260;-78
2021/10/05 10:08:09;;;;;;;5.57;1.50;;;;;17.20;99839.00;;;;10426997;28;20195;-78
2021/10/05 10:13:12;;;;;;;3.75;1.83;;;;;16.80;99846.00;;;;10463355;28;20191;-78
2021/10/05 10:18:15;;;;;;;2.60;0.90;;;;;16.40;99844.00;;;;10428357;28;20209;-77
2021/10/05 10:23:20;;;;;;;2.97;1.30;;;;;16.00;99848.00;;;;10412804;28;20221;-77
2021/10/05 10:28:35;;;;;;;4.35;1.40;;;;;15.90;99836.00;;;;10483412;28;20186;-78
2021/10/05 10:33:46;;;;;;;3.28;1.20;;;;;15.90;99835.00;;;;10418785;28;20282;-78
2021/10/05 10:38:48;;;;;;;4.17;1.40;;;;;15.80;99807.00;;;;10442224;28;20565;-78
2021/10/05 10:43:59;;;;;;;3.90;1.30;;;;;15.60;99797.00;;;;10443639;28;20218;-80
2021/10/05 10:49:04;;;;;;;6.37;1.43;;;;;15.00;99789.00;;;;10409668;28;20352;-79
2021/10/05 10:54:22;;;;;;;2.87;1.40;;;;;15.10;99776.00;;;;10457425;28;20672;-78
2021/10/05 10:59:26;;;;;;;8.00;2.03;;;;;15.00;99763.00;;;;10464386;28;20206;-77
2021/10/05 11:04:29;;;;;;;5.27;1.57;;;;;14.70;99751.00;;;;10440447;28;20194;-78
2021/10/05 11:09:34;;;;;;;7.87;2.33;;;;;14.40;99730.00;;;;10445037;28;20684;-79
2021/10/05 11:14:41;;;;;;;6.77;1.90;;;;;14.30;99720.00;;;;10441035;28;20227;-78
2021/10/05 11:19:43;;;;;;;4.40;1.30;;;;;14.50;99710.00;;;;10425499;28;20927;-78
2021/10/05 11:24:49;;;;;;;9.90;1.97;;;;;14.40;99708.00;;;;10424966;28;20190;-78
2021/10/05 11:29:58;;;;;;;4.63;1.60;;;;;14.50;99697.00;;;;10469171;28;20193;-78
2021/10/05 11:35:00;;;;;;;3.43;1.27;;;;;14.50;99693.00;;;;10417278;28;20198;-79
2021/10/05 11:40:03;;;;;;;7.93;1.77;;;;;14.50;99681.00;;;;10441240;28;20267;-78
2021/10/05 11:45:07;;;;;;;3.50;1.30;;;;;14.40;99674.00;;;;10392454;28;20198;-77
2021/10/05 11:50:10;;;;;;;2.60;1.20;;;;;14.70;99675.00;;;;10408285;28;20190;-78
2021/10/05 11:55:12;;;;;;;4.07;1.10;;;;;14.70;99681.00;;;;10457305;28;20285;-77
2021/10/05 12:00:14;;;;;;;1.80;1.07;;;;;14.80;99684.00;;;;10457258;28;20206;-77
2021/10/05 12:05:26;;;;;;;2.77;1.10;;;;;14.70;99679.00;;;;10440601;28;20194;-77
2021/10/05 12:10:28;;;;;;;1.57;0.90;;;;;14.50;99677.00;;;;10456661;28;20187;-78
2021/10/05 12:15:30;;;;;;;1.43;0.73;;;;;14.40;99680.00;;;;10422075;28;20194;-77
2021/10/05 12:20:33;;;;;;;1.40;1.10;;;;;14.60;99683.00;;;;10423223;28;20207;-77
2021/10/05 12:25:39;;;;;;;1.77;0.70;;;;;14.40;99688.00;;;;10408935;28;20241;-77
2021/10/05 12:30:41;;;;;;;1.60;0.73;;;;;14.20;99694.00;;;;10451826;28;20220;-77
2021/10/05 12:35:47;;;;;;;2.33;1.00;;;;;14.30;99689.00;;;;10457499;28;20253;-77
2021/10/05 12:40:58;;;;;;;1.50;0.80;;;;;14.40;99706.00;;;;10448755;28;20241;-77
2021/10/05 12:46:00;;;;;;;2.30;1.20;;;;;14.20;99716.00;;;;10485867;28;20201;-76
2021/10/05 12:51:12;;;;;;;2.90;1.10;;;;;14.50;99713.00;;;;10506203;28;20205;-77
2021/10/05 12:56:20;;;;;;;3.30;1.00;;;;;15.40;99723.00;;;;10470093;28;20735;-77
2021/10/05 13:01:24;;;;;;;0.80;0.70;;;;;15.30;99734.00;;;;10422996;28;20673;-77
2021/10/05 13:06:26;;;;;;;2.83;0.97;;;;;15.50;99748.00;;;;10464271;28;20252;-77
2021/10/05 13:11:28;;;;;;;4.20;1.10;;;;;15.50;99774.00;;;;10432834;28;20187;-77
2021/10/05 13:16:48;;;;;;;1.93;1.00;;;;;16.50;99794.00;;;;10433753;28;20720;-77
2021/10/05 13:21:50;;;;;;;5.15;0.90;;;;;17.00;99802.00;;;;10446972;28;20202;-78
2021/10/05 13:26:52;;;;;;;2.55;0.88;;;;;16.90;99821.00;;;;10446089;28;20205;-78
2021/10/05 13:31:54;;;;;;;4.10;0.90;;;;;16.80;99828.00;;;;10460402;28;20221;-78
2021/10/05 13:36:57;;;;;;;4.15;1.10;;;;;16.80;99817.00;;;;10431565;28;20260;-78
2021/10/05 13:41:59;;;;;;;4.13;1.10;;;;;16.70;99827.00;;;;10418474;28;20261;-79
2021/10/05 13:47:01;;;;;;;3.72;1.25;;;;;17.10;99827.00;;;;10461365;28;20221;-78
2021/10/05 13:52:03;;;;;;;3.50;1.20;;;;;17.30;99825.00;;;;10412155;28;20210;-78
2021/10/05 13:57:05;;;;;;;6.32;1.50;;;;;17.70;99846.00;;;;10397631;28;20224;-79
2021/10/05 14:02:10;;;;;;;7.15;1.77;;;;;17.40;99842.00;;;;10443205;28;20199;-79
2021/10/05 14:07:15;;;;;;;3.50;1.23;;;;;17.00;99846.00;;;;10477882;28;20194;-79
2021/10/05 14:12:19;;;;;;;4.65;1.48;;;;;16.20;99842.00;;;;10427911;28;20202;-79
2021/10/05 14:17:21;;;;;;;5.75;1.80;;;;;15.50;99838.00;;;;10438825;28;20199;-78
2021/10/05 14:22:24;;;;;;;5.03;1.33;;;;;16.20;99840.00;;;;10458116;28;20260;-79
2021/10/05 14:27:31;;;;;;;6.72;1.20;;;;;15.90;99845.00;;;;10427773;28;20593;-78
2021/10/05 14:32:34;;;;;;;7.23;1.20;;;;;15.50;99840.00;;;;10444408;28;20194;-79
2021/10/05 14:37:36;;;;;;;1.58;1.13;;;;;15.80;99838.00;;;;10420048;28;20222;-77
2021/10/05 14:42:39;;;;;;;8.63;1.85;;;;;16.40;99840.00;;;;10463665;28;20209;-78
2021/10/05 14:47:43;;;;;;;4.18;1.23;;;;;16.00;99845.00;;;;10494038;28;20213;-78
2021/10/05 14:52:45;;;;;;;6.10;1.13;;;;;15.70;99846.00;;;;10412026;28;20209;-78
2021/10/05 14:57:47;;;;;;;4.53;1.00;;;;;15.30;99862.00;;;;10393097;28;20301;-78
2021/10/05 15:02:48;;;;;;;5.73;1.30;;;;;14.90;99865.00;;;;10456902;28;20190;-78
2021/10/05 15:07:50;;;;;;;3.53;0.80;;;;;15.20;99865.00;;;;10425759;28;20186;-77
2021/10/05 15:12:52;;;;;;;4.07;0.90;;;;;15.10;99872.00;;;;10442663;28;20261;-78
2021/10/05 15:17:55;;;;;;;6.87;1.10;;;;;14.70;99872.00;;;;10459586;28;20206;-77
2021/10/05 15:22:57;;;;;;;3.47;1.60;;;;;14.30;99886.00;;;;10424988;28;20198;-77
2021/10/05 15:28:00;;;;;;;6.07;1.47;;;;;14.10;99892.00;;;;10435813;28;20243;-77
2021/10/05 15:33:02;;;;;;;6.20;1.37;;;;;13.90;99893.00;;;;10418605;28;20194;-77
2021/10/05 15:38:04;;;;;;;5.90;1.03;;;;;13.90;99880.00;;;;10444899;28;20213;-76
2021/10/05 15:43:06;;;;;;;7.33;1.10;;;;;13.80;99893.00;;;;10479233;28;20263;-76
2021/10/05 15:48:09;;;;;;;4.50;1.53;;;;;13.80;99898.00;;;;10412900;28;20201;-77
2021/10/05 15:53:11;;;;;;;3.77;1.23;;;;;13.80;99906.00;;;;10426631;28;20665;-77
2021/10/05 15:58:13;;;;;;;5.87;1.30;;;;;13.80;99911.00;;;;10460359;28;20248;-76
2021/10/05 16:03:15;;;;;;;7.50;2.00;;;;;13.70;99919.00;;;;10459414;28;20232;-77
2021/10/05 16:08:17;;;;;;;7.47;1.30;;;;;13.80;99935.00;;;;10419309;28;20201;-76
2021/10/05 16:13:19;;;;;;;7.60;1.43;;;;;13.70;99929.00;;;;10455841;28;20225;-76
2021/10/05 16:18:21;;;;;;;5.40;1.23;;;;;13.80;99934.00;;;;10442879;28;20197;-76
2021/10/05 16:23:23;;;;;;;7.23;1.40;;;;;14.10;99941.00;;;;10430067;28;20194;-76
2021/10/05 16:28:25;;;;;;;5.00;1.50;;;;;13.90;99944.00;;;;10440389;28;20203;-76
2021/10/05 16:33:27;;;;;;;3.63;1.23;;;;;13.60;99951.00;;;;10471817;28;20223;-77
2021/10/05 16:38:29;;;;;;;5.03;1.23;;;;;13.30;99969.00;;;;10430127;28;20268;-77
2021/10/05 16:43:31;;;;;;;6.83;1.30;;;;;13.20;99977.00;;;;10431186;28;20580;-76
2021/10/05 16:48:33;;;;;;;3.30;1.40;;;;;13.10;99978.00;;;;10412525;28;20277;-77
2021/10/05 16:53:35;;;;;;;3.30;1.17;;;;;13.00;99988.00;;;;10450079;28;20254;-77
2021/10/05 16:58:37;;;;;;;5.70;1.63;;;;;13.00;99990.00;;;;10468507;28;20205;-78
2021/10/05 17:03:39;;;;;;;6.83;1.60;;;;;12.90;100001.00;;;;10486931;28;20548;-78
2021/10/05 17:08:40;;;;;;;8.43;2.10;;;;;12.70;100015.00;;;;10452296;28;20185;-77
2021/10/05 17:13:43;;;;;;;8.43;1.73;;;;;12.50;100000.00;;;;10456640;28;20197;-77
2021/10/05 17:18:45;;;;;;;5.60;1.90;;;;;12.40;100001.00;;;;10461816;28;20688;-77
2021/10/05 17:23:47;;;;;;;3.97;1.50;;;;;12.20;100004.00;;;;10482478;28;20190;-77
2021/10/05 17:28:52;;;;;;;7.97;1.73;;;;;12.00;100004.00;;;;10484127;28;20218;-77
2021/10/05 17:33:54;;;;;;;6.23;2.33;;;;;11.80;100012.00;;;;10449651;28;20243;-76
2021/10/05 17:38:56;;;;;;;6.70;2.03;;;;;11.70;100012.00;;;;10483434;28;20259;-78
2021/10/05 17:43:58;;;;;;;6.20;1.63;;;;;11.70;100024.00;;;;10466219;28;20224;-77
2021/10/05 17:49:00;;;;;;;7.47;1.77;;;;;11.80;100033.00;;;;10482499;28;20204;-77
2021/10/05 17:54:02;;;;;;;7.07;1.83;;;;;11.90;100048.00;;;;10517015;28;20244;-77
2021/10/05 17:59:05;;;;;;;4.17;1.63;;;;;12.00;100051.00;;;;10409689;28;20256;-77
2021/10/05 18:04:07;;;;;;;11.03;2.30;;;;;12.10;100078.00;;;;10457343;28;20190;-77
2021/10/05 18:09:09;;;;;;;6.60;1.97;;;;;12.20;100079.00;;;;10478025;28;20242;-77
2021/10/05 18:14:11;;;;;;;8.53;1.73;;;;;12.30;100090.00;;;;10448590;28;20185;-77
2021/10/05 18:19:12;;;;;;;5.97;1.80;;;;;12.30;100103.00;;;;10498265;28;20217;-77
2021/10/05 18:24:15;;;;;;;6.27;1.57;;;;;12.40;100113.00;;;;10465182;28;20197;-77
2021/10/05 18:29:21;;;;;;;10.40;1.87;;;;;12.40;100116.00;;;;10455229;28;20190;-77
2021/10/05 18:34:23;;;;;;;7.13;1.60;;;;;12.40;100130.00;;;;10481648;28;20639;-76
2021/10/05 18:39:25;;;;;;;4.83;1.53;;;;;12.40;100135.00;;;;10446514;28;20250;-77
2021/10/05 18:44:29;;;;;;;8.73;2.30;;;;;12.30;100147.00;;;;10447409;28;20245;-77
2021/10/05 18:49:31;;;;;;;3.83;1.60;;;;;12.30;100152.00;;;;10480556;28;20228;-77
2021/10/05 18:54:33;;;;;;;12.17;1.83;;;;;12.20;100145.00;;;;10498127;28;20190;-77
2021/10/05 18:59:35;;;;;;;4.87;1.60;;;;;12.10;100162.00;;;;10446652;28;20198;-77
2021/10/05 19:04:37;;;;;;;5.27;1.83;;;;;12.10;100166.00;;;;10478298;28;20213;-77
2021/10/05 19:09:39;;;;;;;5.80;1.63;;;;;12.10;100191.00;;;;10462366;28;20190;-77
2021/10/05 19:14:42;;;;;;;6.40;1.70;;;;;12.10;100194.00;;;;10461728;28;20194;-77
2021/10/05 19:19:44;;;;;;;7.20;1.70;;;;;12.20;100213.00;;;;10443227;28;20754;-78
2021/10/05 19:24:45;;;;;;;5.87;1.27;;;;;12.20;100214.00;;;;10480543;28;20679;-77
2021/10/05 19:29:47;;;;;;;6.80;1.87;;;;;12.20;100222.00;;;;10445104;28;20239;-77
2021/10/05 19:34:49;;;;;;;1.63;1.07;;;;;12.20;100222.00;;;;10461365;28;20238;-76
2021/10/05 19:39:51;;;;;;;4.63;1.30;;;;;12.20;100234.00;;;;10475477;28;20241;-77
2021/10/05 19:44:53;;;;;;;2.90;1.23;;;;;12.10;100241.00;;;;10461150;28;20200;-77
2021/10/05 19:49:55;;;;;;;3.67;1.37;;;;;12.10;100252.00;;;;10461922;28;20197;-77
2021/10/05 19:54:57;;;;;;;6.07;1.50;;;;;11.80;100222.00;;;;10426071;28;20252;-76
2021/10/05 19:59:59;;;;;;;6.67;1.80;;;;;11.70;100222.00;;;;10466212;28;20205;-76
2021/10/05 20:05:12;;;;;;;3.10;1.43;;;;;11.50;100234.00;;;;10461076;28;20190;-76
2021/10/05 20:10:14;;;;;;;4.50;1.73;;;;;11.40;100227.00;;;;10443932;28;20251;-77
2021/10/05 20:15:16;;;;;;;7.50;1.97;;;;;11.30;100226.00;;;;10456973;28;20251;-76
2021/10/05 20:20:23;;;;;;;4.07;2.23;;;;;11.20;100228.00;;;;10452959;28;20676;-76
2021/10/05 20:25:25;;;;;;;6.20;1.87;;;;;11.30;100229.00;;;;10447396;28;20695;-76
2021/10/05 20:30:30;;;;;;;6.07;1.33;;;;;11.30;100242.00;;;;10463525;28;20232;-76
2021/10/05 20:35:32;;;;;;;6.30;1.73;;;;;11.30;100250.00;;;;10474717;28;20185;-76
2021/10/05 20:40:35;;;;;;;7.07;1.90;;;;;11.30;100258.00;;;;10462609;28;20769;-76
2021/10/05 20:45:37;;;;;;;2.80;1.70;;;;;11.30;100270.00;;;;10486174;28;20214;-76
2021/10/05 20:50:38;;;;;;;4.50;1.80;;;;;11.40;100286.00;;;;10467732;28;20260;-76
2021/10/05 20:55:42;;;;;;;5.93;1.80;;;;;11.40;100286.00;;;;10502943;28;20213;-76
2021/10/05 21:00:48;;;;;;;6.60;2.00;;;;;11.30;100292.00;;;;10502592;28;20267;-76
2021/10/05 21:05:51;;;;;;;4.13;1.77;;;;;11.20;100294.00;;;;10470940;28;20275;-76
2021/10/05 21:10:52;;;;;;;3.87;1.53;;;;;11.10;100288.00;;;;10452423;28;20194;-76
2021/10/05 21:15:55;;;;;;;5.37;1.80;;;;;11.00;100293.00;;;;10486986;28;20687;-76
2021/10/05 21:20:58;;;;;;;5.10;1.50;;;;;10.90;100301.00;;;;10453734;28;20208;-77
2021/10/05 21:26:00;;;;;;;3.80;1.47;;;;;10.90;100312.00;;;;10467941;28;20209;-76
2021/10/05 21:31:02;;;;;;;6.40;1.87;;;;;10.90;100334.00;;;;10483683;28;20698;-77
2021/10/05 21:36:04;;;;;;;5.10;1.30;;;;;10.80;100340.00;;;;10469778;28;20228;-77
2021/10/05 21:41:06;;;;;;;3.63;1.50;;;;;10.80;100341.00;;;;10470551;28;20217;-77
2021/10/05 21:46:08;;;;;;;5.03;1.43;;;;;10.80;100335.00;;;;10486370;28;20219;-76
2021/10/05 21:51:10;;;;;;;6.63;1.53;;;;;10.70;100340.00;;;;10467276;28;20603;-77
2021/10/05 21:56:13;;;;;;;6.00;1.87;;;;;10.70;100342.00;;;;10473886;28;20209;-77
2021/10/05 22:01:15;;;;;;;9.43;1.80;;;;;10.60;100347.00;;;;10484068;28;20672;-77
2021/10/05 22:06:17;;;;;;;8.20;1.90;;;;;10.60;100348.00;;;;10486469;28;20185;-78
2021/10/05 22:11:19;;;;;;;4.70;1.97;;;;;10.60;100353.00;;;;10469697;28;20193;-78
2021/10/05 22:16:21;;;;;;;7.73;2.00;;;;;10.60;100354.00;;;;10468867;28;20217;-77
2021/10/05 22:21:23;;;;;;;8.43;2.10;;;;;10.60;100370.00;;;;10485149;28;20197;-77
2021/10/05 22:26:28;;;;;;;10.77;2.23;;;;;10.60;100361.00;;;;10485030;28;20235;-77
2021/10/05 22:31:30;;;;;;;7.37;1.83;;;;;10.70;100376.00;;;;10484202;28;20243;-78
2021/10/05 22:36:34;;;;;;;7.70;2.50;;;;;10.70;100379.00;;;;10468531;28;20217;-77
2021/10/05 22:41:35;;;;;;;11.60;2.17;;;;;10.70;100395.00;;;;10484135;28;20244;-77
2021/10/05 22:46:38;;;;;;;11.37;2.57;;;;;10.70;100398.00;;;;10500548;28;20185;-77
2021/10/05 22:51:42;;;;;;;8.00;2.50;;;;;10.70;100404.00;;;;10467428;28;20288;-77
2021/10/05 22:56:44;;;;;;;7.87;2.00;;;;;10.60;100404.00;;;;10517888;28;20190;-78
2021/10/05 23:01:47;;;;;;;7.13;2.23;;;;;10.60;100402.00;;;;10471855;28;20210;-77
2021/10/05 23:06:49;;;;;;;8.33;2.47;;;;;10.70;100416.00;;;;10484683;28;20191;-78
2021/10/05 23:11:51;;;;;;;9.13;2.23;;;;;10.70;100411.00;;;;10448899;28;20213;-77
2021/10/05 23:16:53;;;;;;;6.80;1.97;;;;;10.60;100427.00;;;;10500865;28;20546;-77
2021/10/05 23:21:55;;;;;;;6.50;1.97;;;;;10.60;100435.00;;;;10483663;28;20202;-77
2021/10/05 23:26:56;;;;;;;5.47;2.17;;;;;10.50;100437.00;;;;10517594;28;20228;-77
2021/10/05 23:31:58;;;;;;;10.67;2.60;;;;;10.50;100432.00;;;;10467950;28;20220;-77
2021/10/05 23:37:00;;;;;;;8.47;2.10;;;;;10.50;100438.00;;;;10500536;28;20224;-77
2021/10/05 23:42:02;;;;;;;8.93;2.30;;;;;10.50;100447.00;;;;10445225;28;20221;-77
2021/10/05 23:47:05;;;;;;;9.63;2.10;;;;;10.50;100451.00;;;;10456257;28;20205;-77
2021/10/05 23:52:07;;;;;;;6.97;2.00;;;;;10.40;100452.00;;;;10499604;28;20898;-77
2021/10/05 23:57:08;;;;;;;8.20;2.00;;;;;10.40;100462.00;;;;10450298;28;20229;-77
